Time;durP1;ratioP1;P1;durP2;ratioP2;P2;SDS_P1;SDS_P2;PMS_P1;PMS_P2;Temp;Humidity;BMP_temperature;BMP_pressure;BME280_temperature;BME280_humidity;BME280_pressure;Samples;Min_cycle;Max_cycle;Signal;HPM_P1;HPM_P2
2022/06/02 00:00:32;;;;;;;4.45;3.28;;;;;;;;;;4957158;28;20376;-73
2022/06/02 00:03:03;;;;;;;5.82;4.05;;;;;;;;;;4981277;28;20018;-73
2022/06/02 00:05:34;;;;;;;5.90;4.00;;;;;;;;;;4968356;28;20027;-72
2022/06/02 00:08:02;;;;;;;5.55;4.07;;;;;;;;;;4980367;28;20124;-73
2022/06/02 00:10:46;;;;;;;6.78;3.65;;;;;;;;;;4980244;28;20029;-73
2022/06/02 00:13:23;;;;;;;4.80;3.50;;;;;;;;;;4977387;28;20382;-73
2022/06/02 00:15:57;;;;;;;6.82;3.88;;;;;;;;;;4979295;28;20062;-71
2022/06/02 00:18:31;;;;;;;4.78;3.65;;;;;;;;;;4975604;28;20376;-72
2022/06/02 00:21:09;;;;;;;6.38;3.97;;;;;;;;;;4978165;28;20019;-72
2022/06/02 00:23:37;;;;;;;9.93;5.65;;;;;;;;;;4987288;28;20034;-73
2022/06/02 00:26:11;;;;;;;9.45;3.78;;;;;;;;;;4981432;28;20022;-73
2022/06/02 00:28:46;;;;;;;7.25;4.38;;;;;;;;;;5025647;23;20050;-72
2022/06/02 00:31:44;;;;;;;8.70;4.20;;;;;;;;;;5006084;28;20073;-72
2022/06/02 00:34:16;;;;;;;5.05;3.75;;;;;;;;;;4966150;28;20026;-72
2022/06/02 00:36:53;;;;;;;7.20;3.97;;;;;;;;;;5004895;28;20504;-72
2022/06/02 00:39:19;;;;;;;6.95;3.75;;;;;;;;;;5005592;28;20048;-72
2022/06/02 00:41:44;;;;;;;7.90;4.03;;;;;;;;;;5011179;28;20510;-72
2022/06/02 00:44:14;;;;;;;12.23;3.87;;;;;;;;;;5008197;28;20025;-72
2022/06/02 00:46:55;;;;;;;5.97;4.03;;;;;;;;;;5018194;28;20294;-72
2022/06/02 00:49:20;;;;;;;5.72;4.07;;;;;;;;;;5000689;28;20446;-72
2022/06/02 00:51:56;;;;;;;6.68;4.05;;;;;;;;;;5006323;28;20104;-72
2022/06/02 01:00:11;;;;;;;5.68;4.20;;;;;;;;;;5007832;28;20164;-72
2022/06/02 01:02:45;;;;;;;6.88;4.32;;;;;;;;;;5004836;28;20025;-72
2022/06/02 01:05:11;;;;;;;8.77;5.00;;;;;;;;;;5007313;28;20556;-69
2022/06/02 01:07:39;;;;;;;7.85;5.05;;;;;;;;;;5001651;28;20022;-69
2022/06/02 01:10:04;;;;;;;12.63;4.93;;;;;;;;;;5005121;28;20092;-70
2022/06/02 01:12:35;;;;;;;5.78;4.53;;;;;;;;;;5010794;28;20029;-70
2022/06/02 01:15:07;;;;;;;7.95;4.43;;;;;;;;;;5004558;28;20022;-70
2022/06/02 01:17:35;;;;;;;8.77;4.95;;;;;;;;;;5006380;28;20030;-70
2022/06/02 01:20:06;;;;;;;9.23;5.32;;;;;;;;;;5006695;28;20033;-70
2022/06/02 01:22:34;;;;;;;10.82;5.15;;;;;;;;;;5007531;28;20534;-70
2022/06/02 01:25:13;;;;;;;11.88;4.68;;;;;;;;;;5010413;28;20069;-70
2022/06/02 01:28:01;;;;;;;9.27;4.72;;;;;;;;;;5003466;28;20545;-70
2022/06/02 01:30:45;;;;;;;8.77;4.90;;;;;;;;;;5001059;28;20026;-70
2022/06/02 01:33:13;;;;;;;5.65;4.22;;;;;;;;;;5002066;28;20025;-70
2022/06/02 01:35:45;;;;;;;9.85;4.30;;;;;;;;;;4999775;28;20049;-70
2022/06/02 01:38:10;;;;;;;9.65;4.95;;;;;;;;;;5008355;28;20463;-70
2022/06/02 01:40:52;;;;;;;7.88;5.10;;;;;;;;;;5008445;28;20052;-70
2022/06/02 01:43:47;;;;;;;9.82;5.85;;;;;;;;;;5001885;28;20269;-70
2022/06/02 01:46:23;;;;;;;12.25;5.18;;;;;;;;;;4990014;28;20061;-70
2022/06/02 01:48:59;;;;;;;9.25;5.45;;;;;;;;;;5003782;28;20022;-70
2022/06/02 01:51:24;;;;;;;12.77;5.65;;;;;;;;;;5006300;28;20010;-70
2022/06/02 01:54:16;;;;;;;9.73;5.85;;;;;;;;;;5002712;28;20041;-70
2022/06/02 01:56:44;;;;;;;10.05;6.22;;;;;;;;;;4991087;28;20293;-69
2022/06/02 01:59:09;;;;;;;8.50;5.55;;;;;;;;;;5002755;28;20463;-70
2022/06/02 02:01:53;;;;;;;8.93;5.57;;;;;;;;;;5003600;28;20026;-70
2022/06/02 02:04:24;;;;;;;11.43;4.97;;;;;;;;;;5001091;28;20274;-70
2022/06/02 02:06:56;;;;;;;8.43;5.25;;;;;;;;;;4999169;28;20022;-69
2022/06/02 02:09:42;;;;;;;10.52;5.40;;;;;;;;;;5006892;28;20017;-72
2022/06/02 02:12:13;;;;;;;9.73;5.18;;;;;;;;;;5005640;28;20080;-70
2022/06/02 02:14:38;;;;;;;13.40;5.40;;;;;;;;;;5006657;28;20034;-70
2022/06/02 02:17:22;;;;;;;11.02;5.45;;;;;;;;;;5005349;28;20026;-70
2022/06/02 02:20:06;;;;;;;9.70;5.47;;;;;;;;;;5008277;28;20518;-70
2022/06/02 02:22:51;;;;;;;10.35;5.57;;;;;;;;;;5005877;28;20386;-70
2022/06/02 02:25:16;;;;;;;17.60;6.10;;;;;;;;;;5004903;28;20105;-69
2022/06/02 02:30:29;;;;;;;11.27;6.75;;;;;;;;;;4995138;28;20561;-69
2022/06/02 02:32:56;;;;;;;10.73;7.20;;;;;;;;;;5004992;28;20470;-70
2022/06/02 02:35:46;;;;;;;7.30;5.15;;;;;;;;;;5009330;28;20381;-70
2022/06/02 02:38:28;;;;;;;9.23;5.40;;;;;;;;;;5001038;28;20498;-69
2022/06/02 02:40:58;;;;;;;12.80;5.60;;;;;;;;;;4998849;28;20029;-70
2022/06/02 02:43:25;;;;;;;7.18;4.80;;;;;;;;;;5006308;28;20517;-70
2022/06/02 02:45:51;;;;;;;8.50;5.32;;;;;;;;;;5008330;28;20445;-70
2022/06/02 02:48:17;;;;;;;9.02;4.93;;;;;;;;;;5008963;28;20018;-70
2022/06/02 02:50:51;;;;;;;8.05;5.47;;;;;;;;;;4997439;28;20029;-70
2022/06/02 02:53:31;;;;;;;8.07;5.30;;;;;;;;;;5003215;28;20360;-70
2022/06/02 02:55:56;;;;;;;;;;;;;;;;;;5005664;28;20096;-70
2022/06/02 02:58:29;;;;;;;8.48;5.35;;;;;;;;;;4999295;28;19913;-70
2022/06/02 03:00:59;;;;;;;11.65;5.93;;;;;;;;;;5002482;28;20153;-70
2022/06/02 03:03:44;;;;;;;14.93;5.07;;;;;;;;;;4997935;28;20046;-70
2022/06/02 03:06:18;;;;;;;9.77;6.30;;;;;;;;;;4991414;28;20058;-70
2022/06/02 03:08:49;;;;;;;13.43;6.47;;;;;;;;;;5003837;28;20042;-69
2022/06/02 03:11:33;;;;;;;11.73;6.90;;;;;;;;;;5006963;28;20022;-70
2022/06/02 03:14:03;;;;;;;11.23;6.47;;;;;;;;;;5006678;28;20021;-70
2022/06/02 03:16:29;;;;;;;10.05;6.78;;;;;;;;;;5001217;28;20057;-70
2022/06/02 03:19:13;;;;;;;13.73;6.68;;;;;;;;;;4995946;28;20022;-70
2022/06/02 03:21:51;;;;;;;11.00;6.32;;;;;;;;;;5004632;28;20398;-69
2022/06/02 03:24:35;;;;;;;13.48;6.47;;;;;;;;;;5007611;28;20018;-69
2022/06/02 03:27:19;;;;;;;13.32;7.45;;;;;;;;;;5003791;28;20386;-70
2022/06/02 03:29:51;;;;;;;13.38;7.65;;;;;;;;;;4995099;28;20026;-70
2022/06/02 03:32:41;;;;;;;15.45;7.75;;;;;;;;;;5001465;28;20077;-70
2022/06/02 03:35:26;;;;;;;12.98;7.60;;;;;;;;;;4994375;28;20019;-70
2022/06/02 03:37:51;;;;;;;16.55;8.32;;;;;;;;;;5007027;28;20026;-70
2022/06/02 03:40:25;;;;;;;13.93;8.30;;;;;;;;;;5006444;28;20449;-69
2022/06/02 03:42:53;;;;;;;15.95;7.93;;;;;;;;;;5003015;28;20018;-69
2022/06/02 03:45:19;;;;;;;17.77;10.57;;;;;;;;;;5008169;28;20383;-70
2022/06/02 03:48:02;;;;;;;15.18;8.70;;;;;;;;;;5001849;28;20025;-70
2022/06/02 03:50:39;;;;;;;17.02;8.48;;;;;;;;;;5002817;28;20026;-70
2022/06/02 03:53:20;;;;;;;16.80;9.40;;;;;;;;;;5007355;28;20489;-70
2022/06/02 03:55:59;;;;;;;13.68;7.88;;;;;;;;;;5009497;28;20026;-69
2022/06/02 03:58:43;;;;;;;16.17;8.77;;;;;;;;;;5008223;28;20182;-70
2022/06/02 04:01:11;;;;;;;19.83;8.10;;;;;;;;;;5007689;28;20398;-69
2022/06/02 04:03:42;;;;;;;18.20;8.32;;;;;;;;;;5008734;28;20018;-70
2022/06/02 04:06:10;;;;;;;15.32;8.57;;;;;;;;;;5007918;28;20022;-70
2022/06/02 04:08:41;;;;;;;14.73;9.60;;;;;;;;;;5010643;28;20044;-70
2022/06/02 04:11:06;;;;;;;21.92;9.43;;;;;;;;;;5010319;28;20524;-70
2022/06/02 04:13:37;;;;;;;15.90;9.10;;;;;;;;;;5007344;28;20026;-70
2022/06/02 04:16:11;;;;;;;18.30;9.43;;;;;;;;;;5004106;28;21532;-70
2022/06/02 04:18:45;;;;;;;17.38;8.93;;;;;;;;;;5008621;28;20018;-70
2022/06/02 04:21:23;;;;;;;16.15;8.80;;;;;;;;;;5012024;28;20041;-70
2022/06/02 04:23:55;;;;;;;23.52;10.52;;;;;;;;;;5010043;28;20037;-70
2022/06/02 04:26:45;;;;;;;19.63;10.75;;;;;;;;;;5009166;28;20104;-69
2022/06/02 04:29:10;;;;;;;;;;;;;;;;;;5003458;28;20537;-70
2022/06/02 04:31:54;;;;;;;20.58;9.98;;;;;;;;;;5005912;28;20386;-70
2022/06/02 04:34:22;;;;;;;15.77;9.65;;;;;;;;;;5001499;28;20076;-70
2022/06/02 04:36:52;;;;;;;16.98;9.60;;;;;;;;;;5003293;28;20461;-69
2022/06/02 04:39:25;;;;;;;18.17;10.23;;;;;;;;;;5001188;28;20024;-69
2022/06/02 04:41:56;;;;;;;24.48;10.70;;;;;;;;;;5002491;28;20025;-70
2022/06/02 04:44:41;;;;;;;22.30;10.48;;;;;;;;;;4999357;28;20402;-69
2022/06/02 04:47:14;;;;;;;22.98;11.45;;;;;;;;;;5006428;28;20026;-69
2022/06/02 04:49:40;;;;;;;20.52;10.55;;;;;;;;;;5004592;28;20423;-69
2022/06/02 04:52:05;;;;;;;23.00;12.30;;;;;;;;;;5000927;28;20378;-69
2022/06/02 04:54:49;;;;;;;20.75;11.57;;;;;;;;;;5001266;28;20030;-69
2022/06/02 04:57:33;;;;;;;24.10;11.70;;;;;;;;;;5003313;28;20486;-69
2022/06/02 05:00:09;;;;;;;21.45;11.25;;;;;;;;;;5006216;28;20044;-71
2022/06/02 05:02:34;;;;;;;22.00;11.95;;;;;;;;;;4995929;28;20029;-71
2022/06/02 05:05:11;;;;;;;26.27;11.40;;;;;;;;;;5006036;28;20112;-70
2022/06/02 05:07:36;;;;;;;19.38;12.60;;;;;;;;;;5008203;28;20285;-70
2022/06/02 05:10:11;;;;;;;23.95;11.88;;;;;;;;;;5002720;28;20561;-70
2022/06/02 05:12:56;;;;;;;21.48;12.82;;;;;;;;;;5006371;28;20030;-70
2022/06/02 05:15:27;;;;;;;22.45;11.23;;;;;;;;;;4995377;28;20479;-71
2022/06/02 05:18:22;;;;;;;23.05;12.18;;;;;;;;;;5004641;28;20040;-71
2022/06/02 05:20:47;;;;;;;22.75;12.85;;;;;;;;;;4995638;28;20034;-71
2022/06/02 05:23:31;;;;;;;28.05;12.80;;;;;;;;;;5004605;28;20390;-71
2022/06/02 05:26:12;;;;;;;20.15;12.20;;;;;;;;;;4996678;28;20273;-71
2022/06/02 05:28:44;;;;;;;24.02;12.90;;;;;;;;;;5000601;28;22010;-71
2022/06/02 05:31:12;;;;;;;22.75;11.40;;;;;;;;;;5008488;28;20096;-71
2022/06/02 05:33:55;;;;;;;21.60;13.00;;;;;;;;;;4997560;28;20387;-71
2022/06/02 05:36:33;;;;;;;23.60;12.88;;;;;;;;;;5000845;28;20132;-71
2022/06/02 05:38:58;;;;;;;24.23;13.57;;;;;;;;;;5008262;28;20459;-71
2022/06/02 05:41:35;;;;;;;23.97;13.97;;;;;;;;;;5003024;28;20050;-71
2022/06/02 05:44:06;;;;;;;20.88;11.98;;;;;;;;;;4999414;28;20279;-71
2022/06/02 05:46:50;;;;;;;22.20;11.98;;;;;;;;;;5002318;28;20454;-71
2022/06/02 05:49:24;;;;;;;18.38;11.32;;;;;;;;;;5002320;28;20453;-71
2022/06/02 05:51:52;;;;;;;20.17;12.23;;;;;;;;;;5003964;28;20026;-71
2022/06/02 05:54:46;;;;;;;27.75;12.00;;;;;;;;;;4999959;28;20030;-71
2022/06/02 05:57:11;;;;;;;21.92;12.32;;;;;;;;;;4993079;28;20161;-71
2022/06/02 06:02:34;;;;;;;27.98;12.25;;;;;;;;;;5107103;27;20367;-71
2022/06/02 06:05:18;;;;;;;27.40;15.77;;;;;;;;;;5097830;28;20123;-71
2022/06/02 06:08:02;;;;;;;23.48;14.57;;;;;;;;;;5099569;28;20028;-70
2022/06/02 06:10:33;;;;;;;28.88;15.50;;;;;;;;;;5102636;28;20023;-71
2022/06/02 06:13:07;;;;;;;29.02;16.08;;;;;;;;;;5104798;28;20028;-71
2022/06/02 06:15:39;;;;;;;28.48;16.42;;;;;;;;;;5103566;28;20073;-69
2022/06/02 06:18:23;;;;;;;29.70;16.35;;;;;;;;;;5104305;28;20407;-69
2022/06/02 06:21:06;;;;;;;36.42;17.98;;;;;;;;;;5104557;28;20024;-69
2022/06/02 06:24:00;;;;;;;32.35;18.58;;;;;;;;;;5097708;28;20028;-69
2022/06/02 06:26:34;;;;;;;33.17;20.45;;;;;;;;;;5094458;28;20379;-69
2022/06/02 06:29:12;;;;;;;40.88;20.77;;;;;;;;;;5078117;22;20104;-66
2022/06/02 06:31:43;;;;;;;37.15;18.27;;;;;;;;;;5052935;28;20021;-66
2022/06/02 06:34:08;;;;;;;34.75;19.60;;;;;;;;;;5055586;28;20058;-67
2022/06/02 06:36:33;;;;;;;34.23;21.13;;;;;;;;;;5062705;28;20101;-67
2022/06/02 06:39:27;;;;;;;27.73;16.60;;;;;;;;;;5064098;28;20287;-67
2022/06/02 06:42:01;;;;;;;21.70;12.00;;;;;;;;;;5039733;28;20397;-67
2022/06/02 06:44:38;;;;;;;21.98;10.35;;;;;;;;;;5059740;28;20021;-66
2022/06/02 06:47:09;;;;;;;37.65;21.13;;;;;;;;;;5058642;28;20032;-66
2022/06/02 06:49:40;;;;;;;34.80;20.67;;;;;;;;;;5049903;28;20064;-67
2022/06/02 06:52:15;;;;;;;34.05;19.27;;;;;;;;;;5066203;28;20025;-67
2022/06/02 06:54:40;;;;;;;43.17;22.88;;;;;;;;;;5060212;28;20028;-67
2022/06/02 06:57:10;;;;;;;30.30;19.35;;;;;;;;;;5056221;28;20082;-67
2022/06/02 06:59:43;;;;;;;31.25;17.27;;;;;;;;;;5060204;28;20487;-67
2022/06/02 07:02:12;;;;;;;31.38;15.00;;;;;;;;;;5061565;28;20029;-67
2022/06/02 07:04:46;;;;;;;31.70;17.85;;;;;;;;;;5057316;28;20472;-67
2022/06/02 07:07:18;;;;;;;31.77;19.10;;;;;;;;;;5059750;28;20020;-67
2022/06/02 07:09:46;;;;;;;41.10;20.13;;;;;;;;;;5059677;28;20047;-67
2022/06/02 07:15:13;;;;;;;37.53;20.75;;;;;;;;;;5040039;28;20040;-67
2022/06/02 07:17:38;;;;;;;35.63;15.80;;;;;;;;;;5044396;28;20029;-67
2022/06/02 07:20:07;;;;;;;38.30;20.33;;;;;;;;;;5049304;28;20400;-66
2022/06/02 07:22:42;;;;;;;33.30;17.73;;;;;;;;;;5047233;28;20350;-67
2022/06/02 07:25:21;;;;;;;37.58;20.73;;;;;;;;;;5049685;28;20049;-67
2022/06/02 07:27:52;;;;;;;37.78;20.70;;;;;;;;;;5045742;28;20071;-66
2022/06/02 07:30:36;;;;;;;38.33;21.38;;;;;;;;;;5047653;28;20401;-67
2022/06/02 07:33:20;;;;;;;38.40;20.17;;;;;;;;;;5045948;28;20465;-67
2022/06/02 07:36:04;;;;;;;34.53;20.73;;;;;;;;;;5046022;28;20029;-67
2022/06/02 07:38:47;;;;;;;30.48;20.10;;;;;;;;;;5047262;28;20025;-67
2022/06/02 07:41:31;;;;;;;29.73;19.33;;;;;;;;;;5047866;28;20028;-67
2022/06/02 07:44:11;;;;;;;32.05;18.92;;;;;;;;;;5050336;28;20013;-68
2022/06/02 07:46:37;;;;;;;28.50;15.68;;;;;;;;;;5041426;28;20025;-68
2022/06/02 07:49:11;;;;;;;26.15;16.42;;;;;;;;;;5043688;28;20025;-68
2022/06/02 07:51:40;;;;;;;27.67;18.13;;;;;;;;;;5034970;28;20728;-67
2022/06/02 07:54:24;;;;;;;26.48;17.77;;;;;;;;;;5046235;28;20096;-67
2022/06/02 07:57:00;;;;;;;25.25;17.63;;;;;;;;;;5045201;28;20497;-68
2022/06/02 07:59:26;;;;;;;30.52;17.45;;;;;;;;;;5044020;28;20032;-68
2022/06/02 08:01:57;;;;;;;24.27;16.77;;;;;;;;;;5046200;28;20021;-67
2022/06/02 08:04:28;;;;;;;22.08;14.68;;;;;;;;;;5041154;28;20393;-67
2022/06/02 08:07:05;;;;;;;19.52;14.02;;;;;;;;;;5046919;28;20086;-67
2022/06/02 08:09:35;;;;;;;19.80;13.15;;;;;;;;;;5043629;28;20024;-67
2022/06/02 08:12:01;;;;;;;;;;;;;;;;;;5044936;28;20028;-67
2022/06/02 08:14:38;;;;;;;17.58;11.77;;;;;;;;;;5042803;28;19908;-67
2022/06/02 08:17:03;;;;;;;16.13;10.07;;;;;;;;;;5040188;28;20025;-67
2022/06/02 08:19:47;;;;;;;13.43;8.75;;;;;;;;;;5049038;28;20013;-67
2022/06/02 08:22:16;;;;;;;19.02;13.00;;;;;;;;;;5050822;28;20037;-67
2022/06/02 08:24:54;;;;;;;16.88;11.70;;;;;;;;;;5042471;28;20023;-67
2022/06/02 08:27:26;;;;;;;16.00;12.07;;;;;;;;;;5048935;28;20151;-67
2022/06/02 08:30:00;;;;;;;15.50;10.32;;;;;;;;;;5037695;28;20025;-67
2022/06/02 08:32:44;;;;;;;19.25;10.95;;;;;;;;;;5043093;28;20481;-68
2022/06/02 08:35:10;;;;;;;19.67;11.57;;;;;;;;;;5041649;28;20111;-68
2022/06/02 08:37:54;;;;;;;13.32;8.90;;;;;;;;;;5043666;28;20083;-67
2022/06/02 08:40:31;;;;;;;14.82;7.82;;;;;;;;;;5041136;28;20020;-67
2022/06/02 08:43:19;;;;;;;13.00;7.28;;;;;;;;;;5049888;28;20021;-67
2022/06/02 08:46:02;;;;;;;16.88;7.80;;;;;;;;;;5047278;28;20059;-67
2022/06/02 08:48:40;;;;;;;12.15;8.02;;;;;;;;;;5036773;28;20056;-67
2022/06/02 08:51:08;;;;;;;10.20;5.72;;;;;;;;;;5043208;28;20025;-68
2022/06/02 08:53:48;;;;;;;12.52;8.45;;;;;;;;;;5049773;28;20028;-67
2022/06/02 08:56:31;;;;;;;11.90;7.70;;;;;;;;;;5046786;28;20025;-67
2022/06/02 08:59:16;;;;;;;16.70;6.85;;;;;;;;;;5043429;28;20040;-68
2022/06/02 09:01:59;;;;;;;16.48;9.38;;;;;;;;;;5039061;28;20044;-67
2022/06/02 09:04:47;;;;;;;12.85;8.43;;;;;;;;;;5042113;28;20370;-67
2022/06/02 09:07:30;;;;;;;10.18;7.30;;;;;;;;;;5047130;28;20024;-67
2022/06/02 09:10:11;;;;;;;9.80;7.50;;;;;;;;;;5041094;28;20551;-67
2022/06/02 09:12:36;;;;;;;;;;;;;;;;;;5043612;28;20021;-69
2022/06/02 09:15:19;;;;;;;14.77;8.02;;;;;;;;;;5048913;28;19915;-68
2022/06/02 09:17:51;;;;;;;10.80;7.00;;;;;;;;;;5047198;28;20112;-67
2022/06/02 09:20:29;;;;;;;13.77;6.47;;;;;;;;;;5045550;28;20021;-67
2022/06/02 09:22:54;;;;;;;11.25;7.18;;;;;;;;;;5040784;28;20488;-67
2022/06/02 09:25:22;;;;;;;10.27;6.95;;;;;;;;;;5041096;28;20017;-68
2022/06/02 09:28:08;;;;;;;10.27;6.63;;;;;;;;;;5043253;28;20021;-68
2022/06/02 09:30:45;;;;;;;7.82;4.50;;;;;;;;;;5015353;28;20071;-67
2022/06/02 09:33:34;;;;;;;12.05;4.60;;;;;;;;;;5044130;28;20424;-68
2022/06/02 09:36:19;;;;;;;9.43;5.95;;;;;;;;;;5036399;28;20090;-67
2022/06/02 09:39:07;;;;;;;9.88;6.63;;;;;;;;;;5041327;28;20021;-68
2022/06/02 09:41:51;;;;;;;10.48;6.60;;;;;;;;;;5062155;28;20492;-68
2022/06/02 09:44:34;;;;;;;9.02;6.32;;;;;;;;;;5045652;28;20041;-68
2022/06/02 09:46:59;;;;;;;8.77;5.68;;;;;;;;;;5050334;28;20517;-67
2022/06/02 09:49:25;;;;;;;6.20;4.70;;;;;;;;;;5040324;28;20027;-68
2022/06/02 09:51:58;;;;;;;9.07;4.45;;;;;;;;;;5047870;28;20337;-68
2022/06/02 09:54:42;;;;;;;9.88;4.60;;;;;;;;;;5049309;28;20033;-68
2022/06/02 09:57:55;;;;;;;9.88;4.82;;;;;;;;;;5057111;28;20493;-67
2022/06/02 10:00:00;;;;;;;9.93;5.63;;;;;;;;;;5045006;28;20063;-68
2022/06/02 10:02:33;;;;;;;13.13;4.40;;;;;;;;;;5038485;28;20031;-68
2022/06/02 10:05:08;;;;;;;9.85;5.47;;;;;;;;;;5045225;28;20458;-68
2022/06/02 10:07:42;;;;;;;7.47;5.10;;;;;;;;;;5047407;28;20396;-68
2022/06/02 10:10:14;;;;;;;10.93;4.50;;;;;;;;;;5048739;28;20021;-68
2022/06/02 10:12:54;;;;;;;8.02;5.35;;;;;;;;;;5042744;28;20056;-68
2022/06/02 10:15:19;;;;;;;9.10;5.15;;;;;;;;;;5047006;28;20019;-68
2022/06/02 10:17:56;;;;;;;13.13;4.47;;;;;;;;;;5047764;28;20017;-68
2022/06/02 10:20:40;;;;;;;14.68;4.53;;;;;;;;;;5040033;28;20025;-68
2022/06/02 10:23:16;;;;;;;5.82;3.40;;;;;;;;;;5039278;28;20053;-67
2022/06/02 10:25:57;;;;;;;5.82;3.80;;;;;;;;;;5048004;28;20108;-68
2022/06/02 10:28:37;;;;;;;6.70;3.63;;;;;;;;;;5039336;28;20024;-68
2022/06/02 10:31:02;;;;;;;;;;;;;;;;;;5031848;28;20030;-68
2022/06/02 10:33:28;;;;;;;5.43;3.35;;;;;;;;;;5038289;28;19908;-68
2022/06/02 10:36:28;;;;;;;5.85;3.15;;;;;;;;;;5047942;28;20021;-69
2022/06/02 10:39:17;;;;;;;5.68;3.10;;;;;;;;;;4990087;28;20038;-68
2022/06/02 10:42:01;;;;;;;4.10;2.35;;;;;;;;;;5042215;28;20485;-68
2022/06/02 10:44:47;;;;;;;3.47;2.63;;;;;;;;;;5033943;28;20020;-68
2022/06/02 10:47:27;;;;;;;6.88;2.78;;;;;;;;;;5039498;28;20017;-68
2022/06/02 10:49:59;;;;;;;4.85;2.53;;;;;;;;;;5051024;28;20071;-68
2022/06/02 10:52:40;;;;;;;3.65;2.28;;;;;;;;;;5050035;28;20099;-67
2022/06/02 10:55:07;;;;;;;3.80;2.42;;;;;;;;;;5050430;28;20035;-67
2022/06/02 10:57:50;;;;;;;6.43;2.70;;;;;;;;;;5043158;28;20413;-68
2022/06/02 11:00:20;;;;;;;3.88;2.70;;;;;;;;;;5046979;28;20025;-68
2022/06/02 11:02:54;;;;;;;4.03;2.77;;;;;;;;;;5045634;28;20048;-68
2022/06/02 11:05:31;;;;;;;3.70;2.40;;;;;;;;;;5047215;28;20017;-67
2022/06/02 11:07:57;;;;;;;4.97;2.78;;;;;;;;;;5036041;28;20013;-67
2022/06/02 11:10:48;;;;;;;2.70;2.13;;;;;;;;;;5039111;28;20023;-68
2022/06/02 11:13:19;;;;;;;5.78;2.42;;;;;;;;;;5050598;28;20040;-68
2022/06/02 11:16:02;;;;;;;3.63;2.20;;;;;;;;;;5050075;28;20435;-68
2022/06/02 11:18:46;;;;;;;4.00;2.35;;;;;;;;;;5046102;28;20527;-68
2022/06/02 11:21:32;;;;;;;3.58;2.28;;;;;;;;;;5039782;28;20429;-67
2022/06/02 11:24:10;;;;;;;4.78;2.35;;;;;;;;;;5049788;28;20037;-68
2022/06/02 11:27:05;;;;;;;5.97;1.98;;;;;;;;;;5048583;28;20050;-68
2022/06/02 11:29:51;;;;;;;5.47;2.55;;;;;;;;;;5044742;28;20041;-68
2022/06/02 11:32:19;;;;;;;3.38;1.95;;;;;;;;;;5049445;28;20387;-68
2022/06/02 11:35:02;;;;;;;3.58;2.25;;;;;;;;;;5044554;28;20097;-68
2022/06/02 11:37:39;;;;;;;8.40;1.98;;;;;;;;;;5044735;28;20082;-68
2022/06/02 11:40:23;;;;;;;2.80;2.00;;;;;;;;;;5046684;28;20032;-68
2022/06/02 11:42:48;;;;;;;7.63;1.60;;;;;;;;;;5045191;28;20025;-68
2022/06/02 11:45:24;;;;;;;3.17;1.80;;;;;;;;;;5048899;28;20035;-67
2022/06/02 11:48:08;;;;;;;3.85;1.63;;;;;;;;;;5048936;28;20033;-68
2022/06/02 11:50:52;;;;;;;3.22;1.60;;;;;;;;;;5050305;28;20027;-67
2022/06/02 11:53:26;;;;;;;4.00;1.80;;;;;;;;;;5064779;28;20021;-68
2022/06/02 11:56:11;;;;;;;2.95;1.90;;;;;;;;;;5048703;28;20020;-68
2022/06/02 11:58:36;;;;;;;3.72;2.50;;;;;;;;;;5047146;28;20024;-68
2022/06/02 12:01:12;;;;;;;2.88;1.88;;;;;;;;;;5047075;28;20031;-68
2022/06/02 12:03:40;;;;;;;3.95;2.00;;;;;;;;;;5046684;28;20021;-68
2022/06/02 12:06:24;;;;;;;2.53;1.77;;;;;;;;;;5044922;28;20048;-68
2022/06/02 12:09:08;;;;;;;4.00;1.80;;;;;;;;;;5048341;28;20021;-68
2022/06/02 12:11:52;;;;;;;3.65;1.90;;;;;;;;;;5047939;28;20027;-68
2022/06/02 12:14:18;;;;;;;2.47;1.70;;;;;;;;;;5048204;28;20100;-68
2022/06/02 12:16:58;;;;;;;7.63;1.63;;;;;;;;;;5047098;28;20154;-68
2022/06/02 12:19:38;;;;;;;3.55;1.88;;;;;;;;;;5047509;28;20044;-68
2022/06/02 12:22:15;;;;;;;4.90;1.85;;;;;;;;;;5047353;28;20021;-68
2022/06/02 12:24:40;;;;;;;3.10;1.42;;;;;;;;;;5047016;28;20013;-68
2022/06/02 12:27:24;;;;;;;2.00;1.58;;;;;;;;;;5049039;28;20469;-68
2022/06/02 12:29:52;;;;;;;2.83;1.30;;;;;;;;;;5048920;28;20102;-68
2022/06/02 12:32:44;;;;;;;1.70;1.25;;;;;;;;;;5045006;28;20025;-68
2022/06/02 12:35:28;;;;;;;2.15;1.60;;;;;;;;;;5025511;28;20034;-68
2022/06/02 12:38:10;;;;;;;5.60;1.77;;;;;;;;;;5037974;28;20013;-68
2022/06/02 12:40:54;;;;;;;1.73;1.20;;;;;;;;;;5042210;28;20024;-68
2022/06/02 12:43:37;;;;;;;3.42;1.80;;;;;;;;;;5046758;28;20014;-68
2022/06/02 12:46:19;;;;;;;5.05;1.60;;;;;;;;;;5045238;28;20032;-68
2022/06/02 12:49:02;;;;;;;1.10;0.82;;;;;;;;;;5044202;28;20021;-68
2022/06/02 12:51:27;;;;;;;9.73;1.90;;;;;;;;;;5045305;28;20021;-68
2022/06/02 12:54:02;;;;;;;2.05;1.50;;;;;;;;;;5039892;28;20243;-68
2022/06/02 12:56:31;;;;;;;1.40;1.17;;;;;;;;;;5046425;28;20363;-68
2022/06/02 12:59:09;;;;;;;3.13;1.55;;;;;;;;;;5047074;28;20025;-68
2022/06/02 13:01:40;;;;;;;2.70;1.70;;;;;;;;;;5041577;28;20035;-67
2022/06/02 13:04:17;;;;;;;4.05;1.45;;;;;;;;;;5044529;28;20024;-67
2022/06/02 13:06:46;;;;;;;3.05;1.75;;;;;;;;;;5044912;28;20017;-68
2022/06/02 13:09:30;;;;;;;2.70;1.50;;;;;;;;;;5044593;28;20017;-69
2022/06/02 13:12:20;;;;;;;3.95;1.95;;;;;;;;;;5048180;28;20103;-67
2022/06/02 13:15:08;;;;;;;3.15;1.70;;;;;;;;;;5048960;28;20017;-68
2022/06/02 13:17:51;;;;;;;2.70;1.90;;;;;;;;;;5040535;28;20375;-68
2022/06/02 13:20:16;;;;;;;2.30;1.58;;;;;;;;;;5046343;28;20025;-68
2022/06/02 13:22:54;;;;;;;2.28;1.60;;;;;;;;;;5044917;28;20364;-68
2022/06/02 13:25:22;;;;;;;1.80;1.38;;;;;;;;;;5044056;28;20049;-68
2022/06/02 13:28:02;;;;;;;3.80;1.65;;;;;;;;;;5048388;28;20677;-68
2022/06/02 13:30:27;;;;;;;2.60;1.38;;;;;;;;;;5046124;28;20100;-68
2022/06/02 13:32:53;;;;;;;3.03;1.55;;;;;;;;;;5041538;28;20108;-68
2022/06/02 13:35:36;;;;;;;3.20;1.63;;;;;;;;;;5043111;28;20033;-68
2022/06/02 13:38:24;;;;;;;2.03;1.50;;;;;;;;;;5044068;28;20460;-67
2022/06/02 13:41:01;;;;;;;2.35;1.70;;;;;;;;;;5044875;28;20546;-68
2022/06/02 13:43:29;;;;;;;3.08;1.38;;;;;;;;;;5046612;28;20025;-68
2022/06/02 13:46:13;;;;;;;3.80;1.27;;;;;;;;;;5046193;28;20021;-68
2022/06/02 13:48:38;;;;;;;2.30;1.40;;;;;;;;;;5042616;28;20024;-67
2022/06/02 13:51:06;;;;;;;1.33;1.00;;;;;;;;;;5043901;28;20032;-68
2022/06/02 13:53:37;;;;;;;4.55;1.55;;;;;;;;;;5046518;28;20380;-68
2022/06/02 13:59:13;;;;;;;3.20;1.65;;;;;;;;;;5043785;28;20064;-68
2022/06/02 14:01:46;;;;;;;2.72;1.70;;;;;;;;;;5045473;28;20062;-67
2022/06/02 14:04:20;;;;;;;3.20;1.30;;;;;;;;;;5044799;28;20037;-68
2022/06/02 14:06:50;;;;;;;1.45;1.02;;;;;;;;;;5043774;28;20480;-68
2022/06/02 14:09:31;;;;;;;3.75;1.65;;;;;;;;;;5046617;28;20033;-67
2022/06/02 14:12:09;;;;;;;8.30;1.35;;;;;;;;;;5040837;28;20044;-69
2022/06/02 14:14:35;;;;;;;2.00;0.98;;;;;;;;;;5049122;28;20044;-67
2022/06/02 14:17:26;;;;;;;3.20;1.13;;;;;;;;;;5043926;28;20053;-68
2022/06/02 14:19:54;;;;;;;3.75;1.40;;;;;;;;;;5044941;28;20032;-67
2022/06/02 14:22:19;;;;;;;1.95;1.38;;;;;;;;;;5043806;28;20086;-68
2022/06/02 14:24:50;;;;;;;4.47;1.63;;;;;;;;;;5051709;28;20535;-68
2022/06/02 14:27:18;;;;;;;3.38;1.33;;;;;;;;;;5052188;28;20283;-68
2022/06/02 14:30:02;;;;;;;3.75;1.23;;;;;;;;;;5044819;28;20255;-68
2022/06/02 14:32:30;;;;;;;3.90;1.40;;;;;;;;;;5045726;28;20028;-68
2022/06/02 14:35:16;;;;;;;3.15;1.55;;;;;;;;;;5045290;28;20025;-68
2022/06/02 14:37:43;;;;;;;2.40;1.23;;;;;;;;;;5048940;28;20013;-68
2022/06/02 14:40:13;;;;;;;4.07;1.48;;;;;;;;;;5050547;28;20474;-68
2022/06/02 14:43:09;;;;;;;3.03;1.33;;;;;;;;;;5052159;28;20489;-68
2022/06/02 14:45:44;;;;;;;1.83;1.17;;;;;;;;;;5048724;28;20620;-68
2022/06/02 14:48:15;;;;;;;10.07;1.40;;;;;;;;;;5048955;28;20025;-68
2022/06/02 14:50:43;;;;;;;1.70;1.23;;;;;;;;;;5044610;28;20029;-68
2022/06/02 14:53:09;;;;;;;2.60;1.05;;;;;;;;;;5047840;28;20722;-68
2022/06/02 14:55:52;;;;;;;1.92;0.93;;;;;;;;;;5049801;28;20032;-67
2022/06/02 14:58:23;;;;;;;2.40;0.70;;;;;;;;;;5051456;28;20351;-68
2022/06/02 15:01:05;;;;;;;1.13;0.70;;;;;;;;;;5049026;28;20021;-68
2022/06/02 15:03:39;;;;;;;4.40;1.25;;;;;;;;;;5046213;28;20124;-68
2022/06/02 15:06:22;;;;;;;3.80;1.80;;;;;;;;;;5051300;28;20032;-68
2022/06/02 15:08:57;;;;;;;2.90;1.17;;;;;;;;;;5052125;28;20487;-68
2022/06/02 15:11:41;;;;;;;1.23;0.88;;;;;;;;;;5045701;28;20389;-68
2022/06/02 15:14:13;;;;;;;1.90;1.10;;;;;;;;;;5048363;28;20128;-68
2022/06/02 15:16:41;;;;;;;7.55;1.15;;;;;;;;;;5042140;28;20052;-68
2022/06/02 15:19:15;;;;;;;3.67;1.10;;;;;;;;;;5048254;28;20056;-67
2022/06/02 15:21:59;;;;;;;4.45;1.10;;;;;;;;;;5038866;28;20017;-68
2022/06/02 15:24:32;;;;;;;1.23;0.93;;;;;;;;;;5047754;28;20017;-68
2022/06/02 15:27:04;;;;;;;2.15;1.40;;;;;;;;;;5045183;28;20010;-68
2022/06/02 15:29:49;;;;;;;2.47;1.00;;;;;;;;;;5047694;28;20025;-68
2022/06/02 15:32:37;;;;;;;1.23;1.10;;;;;;;;;;5042182;28;20102;-68
2022/06/02 15:35:05;;;;;;;3.03;0.80;;;;;;;;;;5048475;28;20493;-67
2022/06/02 15:37:47;;;;;;;1.83;0.95;;;;;;;;;;5039135;28;20032;-67
2022/06/02 15:40:26;;;;;;;1.08;0.60;;;;;;;;;;5050422;28;20025;-68
2022/06/02 15:43:02;;;;;;;1.50;1.10;;;;;;;;;;5048001;28;20424;-67